Time;durP1;ratioP1;P1;durP2;ratioP2;P2;SDS_P1;SDS_P2;PMS_P1;PMS_P2;Temp;Humidity;BMP_temperature;BMP_pressure;BME280_temperature;BME280_humidity;BME280_pressure;Samples;Min_cycle;Max_cycle;Signal;HPM_P1;HPM_P2
2022/04/19 00:00:53;;;;;;;11.15;7.78;;;;;;;;;;5030169;28;20021;-74
2022/04/19 00:03:19;;;;;;;12.55;7.43;;;;;;;;;;5035868;28;20505;-74
2022/04/19 00:05:45;;;;;;;12.50;7.45;;;;;;;;;;5034432;28;20032;-73
2022/04/19 00:08:12;;;;;;;12.85;7.82;;;;;;;;;;5034086;28;20039;-74
2022/04/19 00:10:40;;;;;;;11.20;7.35;;;;;;;;;;5034075;28;20031;-73
2022/04/19 00:13:07;;;;;;;12.65;8.07;;;;;;;;;;5031010;28;20034;-74
2022/04/19 00:15:34;;;;;;;10.50;7.80;;;;;;;;;;5037351;28;20036;-73
2022/04/19 00:18:02;;;;;;;10.15;8.20;;;;;;;;;;5038590;28;20028;-73
2022/04/19 00:20:29;;;;;;;12.45;7.75;;;;;;;;;;5038405;28;20025;-73
2022/04/19 00:22:55;;;;;;;11.80;8.23;;;;;;;;;;5038314;28;20075;-73
2022/04/19 00:25:22;;;;;;;12.15;8.07;;;;;;;;;;5036761;28;20482;-73
2022/04/19 00:27:48;;;;;;;11.15;7.95;;;;;;;;;;5034781;28;20503;-73
2022/04/19 00:30:15;;;;;;;11.27;8.00;;;;;;;;;;5039765;28;20082;-74
2022/04/19 00:32:41;;;;;;;12.35;8.15;;;;;;;;;;5037678;28;20038;-73
2022/04/19 00:35:09;;;;;;;11.60;8.10;;;;;;;;;;5038003;28;20273;-73
2022/04/19 00:37:36;;;;;;;11.00;8.10;;;;;;;;;;5037711;28;20029;-73
2022/04/19 00:40:03;;;;;;;9.43;7.07;;;;;;;;;;5034113;28;20026;-73
2022/04/19 00:42:30;;;;;;;10.98;7.30;;;;;;;;;;5038668;28;20023;-73
2022/04/19 00:44:57;;;;;;;9.18;7.65;;;;;;;;;;5036302;28;20037;-73
2022/04/19 00:47:23;;;;;;;9.75;7.30;;;;;;;;;;5037575;28;20034;-73
2022/04/19 00:49:50;;;;;;;10.52;7.65;;;;;;;;;;5037455;28;20110;-73
2022/04/19 00:52:16;;;;;;;10.02;7.20;;;;;;;;;;5035736;28;20059;-73
2022/04/19 00:54:43;;;;;;;11.35;6.88;;;;;;;;;;5034899;28;20040;-73
2022/04/19 00:57:10;;;;;;;9.88;7.55;;;;;;;;;;5039511;28;20036;-73
2022/04/19 00:59:37;;;;;;;15.55;8.20;;;;;;;;;;5037186;28;20035;-73
2022/04/19 01:02:04;;;;;;;11.80;8.18;;;;;;;;;;5037251;28;20021;-73
2022/04/19 01:04:30;;;;;;;9.93;7.30;;;;;;;;;;5037394;28;20016;-73
2022/04/19 01:07:00;;;;;;;9.88;7.00;;;;;;;;;;5033097;28;20021;-73
2022/04/19 01:09:26;;;;;;;10.57;7.82;;;;;;;;;;5046574;28;20025;-73
2022/04/19 01:14:38;;;;;;;9.75;7.63;;;;;;;;;;5036690;28;20037;-73
2022/04/19 01:17:06;;;;;;;8.77;7.85;;;;;;;;;;5037130;28;20010;-73
2022/04/19 01:19:32;;;;;;;15.52;7.88;;;;;;;;;;5037202;28;20025;-73
2022/04/19 01:21:59;;;;;;;8.57;6.57;;;;;;;;;;5032612;28;20406;-73
2022/04/19 01:24:25;;;;;;;11.60;7.13;;;;;;;;;;5038852;28;20028;-73
2022/04/19 01:26:54;;;;;;;10.25;7.18;;;;;;;;;;5036637;28;20033;-73
2022/04/19 01:29:21;;;;;;;8.82;7.20;;;;;;;;;;5036318;28;20013;-73
2022/04/19 01:31:48;;;;;;;11.93;7.00;;;;;;;;;;5037141;28;20031;-73
2022/04/19 01:34:14;;;;;;;8.45;7.00;;;;;;;;;;5034401;28;20041;-73
2022/04/19 01:36:41;;;;;;;11.55;7.68;;;;;;;;;;5034847;28;20017;-73
2022/04/19 01:39:08;;;;;;;8.73;6.57;;;;;;;;;;5038659;28;20033;-73
2022/04/19 01:41:34;;;;;;;11.30;7.60;;;;;;;;;;5036575;28;20295;-73
2022/04/19 01:44:01;;;;;;;9.95;7.10;;;;;;;;;;5036210;28;20031;-73
2022/04/19 01:46:27;;;;;;;11.27;7.40;;;;;;;;;;5036286;28;20026;-73
2022/04/19 01:48:57;;;;;;;9.63;7.20;;;;;;;;;;5032647;28;20040;-74
2022/04/19 01:51:24;;;;;;;9.18;7.00;;;;;;;;;;5038320;28;20397;-73
2022/04/19 01:53:51;;;;;;;8.50;6.15;;;;;;;;;;5035177;28;20050;-73
2022/04/19 01:56:17;;;;;;;11.32;6.30;;;;;;;;;;5036325;28;20056;-73
2022/04/19 01:58:44;;;;;;;8.52;6.15;;;;;;;;;;5034547;28;20020;-73
2022/04/19 02:01:11;;;;;;;9.82;6.25;;;;;;;;;;5033526;28;20040;-73
2022/04/19 02:03:37;;;;;;;7.28;6.13;;;;;;;;;;5035271;28;20052;-73
2022/04/19 02:06:13;;;;;;;9.52;6.07;;;;;;;;;;5037503;28;20032;-73
2022/04/19 02:08:40;;;;;;;7.50;5.70;;;;;;;;;;5035827;28;20436;-73
2022/04/19 02:11:06;;;;;;;8.50;6.05;;;;;;;;;;5036139;28;20039;-73
2022/04/19 02:13:33;;;;;;;8.68;6.10;;;;;;;;;;5035541;28;20427;-74
2022/04/19 02:15:59;;;;;;;6.65;5.45;;;;;;;;;;5032086;28;20028;-73
2022/04/19 02:18:26;;;;;;;7.65;5.95;;;;;;;;;;5037725;28;20021;-73
2022/04/19 02:20:52;;;;;;;7.70;5.82;;;;;;;;;;5036036;28;20024;-73
2022/04/19 02:23:19;;;;;;;9.50;6.15;;;;;;;;;;5035827;28;20040;-73
2022/04/19 02:25:46;;;;;;;10.63;6.10;;;;;;;;;;5035790;28;20028;-73
2022/04/19 02:28:13;;;;;;;9.73;5.78;;;;;;;;;;5032999;28;20034;-73
2022/04/19 02:30:40;;;;;;;6.15;5.40;;;;;;;;;;5034451;28;20508;-73
2022/04/19 02:33:06;;;;;;;9.63;5.78;;;;;;;;;;5037484;28;20043;-73
2022/04/19 02:35:33;;;;;;;6.97;5.90;;;;;;;;;;5035384;28;20033;-73
2022/04/19 02:37:59;;;;;;;6.93;5.63;;;;;;;;;;5034612;28;20409;-73
2022/04/19 02:40:26;;;;;;;9.38;6.70;;;;;;;;;;5034908;28;20024;-73
2022/04/19 02:42:54;;;;;;;9.77;6.72;;;;;;;;;;5031423;28;20032;-73
2022/04/19 02:45:22;;;;;;;10.05;6.38;;;;;;;;;;5037185;28;20025;-73
2022/04/19 02:47:51;;;;;;;9.05;6.13;;;;;;;;;;5035549;28;20029;-73
2022/04/19 02:50:18;;;;;;;9.82;6.25;;;;;;;;;;5035310;28;20029;-73
2022/04/19 02:52:44;;;;;;;8.57;6.43;;;;;;;;;;5035038;28;20535;-73
2022/04/19 02:55:11;;;;;;;9.20;6.28;;;;;;;;;;5032679;28;20048;-73
2022/04/19 02:57:37;;;;;;;10.40;6.10;;;;;;;;;;5033836;28;20028;-73
2022/04/19 03:00:04;;;;;;;8.75;6.53;;;;;;;;;;5036384;28;20033;-73
2022/04/19 03:02:30;;;;;;;6.65;5.30;;;;;;;;;;5035121;28;20040;-73
2022/04/19 03:04:56;;;;;;;8.40;5.97;;;;;;;;;;5035597;28;20020;-73
2022/04/19 03:07:23;;;;;;;7.80;6.10;;;;;;;;;;5034025;28;20021;-73
2022/04/19 03:09:49;;;;;;;7.30;5.88;;;;;;;;;;5031426;28;20021;-73
2022/04/19 03:12:15;;;;;;;8.43;6.68;;;;;;;;;;5037103;28;20483;-73
2022/04/19 03:14:42;;;;;;;12.00;6.50;;;;;;;;;;5034762;28;20029;-73
2022/04/19 03:17:08;;;;;;;11.75;7.35;;;;;;;;;;5034892;28;20494;-73
2022/04/19 03:19:34;;;;;;;12.30;6.90;;;;;;;;;;5034595;28;20029;-73
2022/04/19 03:22:01;;;;;;;8.82;6.93;;;;;;;;;;5031066;28;20022;-73
2022/04/19 03:29:57;;;;;;;9.77;6.88;;;;;;;;;;5034059;28;20022;-73
2022/04/19 03:32:24;;;;;;;9.27;7.18;;;;;;;;;;5034645;28;20021;-73
2022/04/19 03:34:50;;;;;;;9.48;7.28;;;;;;;;;;5034722;28;20048;-73
2022/04/19 03:37:19;;;;;;;8.73;6.90;;;;;;;;;;5033341;28;20021;-73
2022/04/19 03:39:45;;;;;;;9.48;6.90;;;;;;;;;;5031391;28;20025;-73
2022/04/19 03:42:11;;;;;;;8.27;6.43;;;;;;;;;;5051907;28;20031;-73
2022/04/19 03:44:38;;;;;;;9.05;6.68;;;;;;;;;;5034524;28;20508;-73
2022/04/19 03:47:07;;;;;;;8.85;6.65;;;;;;;;;;5034736;28;20030;-73
2022/04/19 03:49:34;;;;;;;10.07;7.65;;;;;;;;;;5034241;28;20025;-73
2022/04/19 03:52:01;;;;;;;13.38;7.30;;;;;;;;;;5030619;28;20022;-73
2022/04/19 03:54:27;;;;;;;9.43;6.82;;;;;;;;;;5035300;28;20033;-73
2022/04/19 03:56:54;;;;;;;10.73;7.65;;;;;;;;;;5034564;28;20032;-73
2022/04/19 03:59:22;;;;;;;11.77;7.65;;;;;;;;;;5034301;28;20021;-73
2022/04/19 04:01:49;;;;;;;10.68;7.65;;;;;;;;;;5034377;28;20465;-73
2022/04/19 04:04:15;;;;;;;9.65;7.53;;;;;;;;;;5032248;28;20494;-73
2022/04/19 04:06:41;;;;;;;9.38;7.35;;;;;;;;;;5032050;28;20018;-73
2022/04/19 04:09:08;;;;;;;10.05;7.82;;;;;;;;;;5033781;28;20029;-73
2022/04/19 04:11:34;;;;;;;8.43;7.00;;;;;;;;;;5034313;28;20028;-73
2022/04/19 04:14:00;;;;;;;8.63;6.90;;;;;;;;;;5032994;28;20042;-72
2022/04/19 04:16:27;;;;;;;9.23;7.03;;;;;;;;;;5032895;28;20017;-73
2022/04/19 04:18:53;;;;;;;7.85;6.65;;;;;;;;;;5028947;28;20029;-73
2022/04/19 04:21:19;;;;;;;13.13;7.22;;;;;;;;;;5036351;28;20021;-73
2022/04/19 04:23:46;;;;;;;11.98;7.07;;;;;;;;;;5033906;28;20083;-73
2022/04/19 04:26:12;;;;;;;9.75;6.70;;;;;;;;;;5034378;28;20033;-73
2022/04/19 04:28:38;;;;;;;11.43;7.30;;;;;;;;;;5034074;28;20038;-73
2022/04/19 04:31:06;;;;;;;8.95;6.80;;;;;;;;;;5030898;28;20496;-73
2022/04/19 04:33:32;;;;;;;10.30;7.07;;;;;;;;;;5034191;28;20414;-73
2022/04/19 04:35:58;;;;;;;8.90;6.47;;;;;;;;;;5050074;28;20045;-73
2022/04/19 04:38:25;;;;;;;9.52;6.85;;;;;;;;;;5033589;28;20508;-73
2022/04/19 04:40:51;;;;;;;9.95;6.63;;;;;;;;;;5034314;28;20020;-73
2022/04/19 04:43:18;;;;;;;9.40;7.45;;;;;;;;;;5032230;28;20030;-73
2022/04/19 04:45:44;;;;;;;10.13;7.10;;;;;;;;;;5031218;28;20022;-73
2022/04/19 04:50:55;;;;;;;11.48;8.43;;;;;;;;;;5033015;28;20051;-73
2022/04/19 04:53:22;;;;;;;11.15;7.97;;;;;;;;;;5032209;28;20060;-73
2022/04/19 04:55:48;;;;;;;9.52;7.07;;;;;;;;;;5033970;28;20182;-73
2022/04/19 04:58:15;;;;;;;9.65;7.88;;;;;;;;;;5031639;28;20036;-73
2022/04/19 05:00:41;;;;;;;12.23;8.07;;;;;;;;;;5032980;28;20026;-73
2022/04/19 05:03:07;;;;;;;11.52;7.28;;;;;;;;;;5037166;28;20026;-73
2022/04/19 05:05:34;;;;;;;10.38;7.57;;;;;;;;;;5037413;28;20037;-73
2022/04/19 05:08:02;;;;;;;8.73;6.82;;;;;;;;;;5037347;28;20018;-73
2022/04/19 05:10:29;;;;;;;11.77;7.00;;;;;;;;;;5037296;28;20021;-73
2022/04/19 05:12:55;;;;;;;10.55;7.15;;;;;;;;;;5032924;28;20025;-73
2022/04/19 05:15:22;;;;;;;10.73;6.78;;;;;;;;;;5039288;28;20036;-73
2022/04/19 05:17:48;;;;;;;14.27;7.25;;;;;;;;;;5037151;28;20029;-73
2022/04/19 05:20:14;;;;;;;11.40;6.65;;;;;;;;;;5037348;28;20047;-73
2022/04/19 05:22:41;;;;;;;13.95;6.80;;;;;;;;;;5036773;28;20017;-73
2022/04/19 05:25:07;;;;;;;11.52;6.57;;;;;;;;;;5034109;28;20021;-73
2022/04/19 05:27:33;;;;;;;12.38;6.25;;;;;;;;;;5035938;28;20033;-73
2022/04/19 05:30:00;;;;;;;11.23;6.80;;;;;;;;;;5037765;28;20028;-73
2022/04/19 05:32:27;;;;;;;11.10;6.30;;;;;;;;;;5037057;28;20025;-73
2022/04/19 05:34:54;;;;;;;12.05;6.75;;;;;;;;;;5034780;28;20506;-73
2022/04/19 05:37:20;;;;;;;9.80;7.13;;;;;;;;;;5035252;28;20025;-73
2022/04/19 05:39:46;;;;;;;10.60;6.68;;;;;;;;;;5033435;28;20438;-73
2022/04/19 05:42:13;;;;;;;8.40;6.10;;;;;;;;;;5038427;28;20065;-73
2022/04/19 05:44:39;;;;;;;13.27;6.13;;;;;;;;;;5036170;28;20022;-72
2022/04/19 05:47:05;;;;;;;9.60;6.15;;;;;;;;;;5036080;28;20041;-73
2022/04/19 05:49:32;;;;;;;15.18;6.90;;;;;;;;;;5036039;28;20062;-73
2022/04/19 05:51:59;;;;;;;10.23;6.82;;;;;;;;;;5032122;28;20029;-74
2022/04/19 05:54:25;;;;;;;10.63;6.20;;;;;;;;;;5038228;28;20034;-73
2022/04/19 05:56:51;;;;;;;14.02;6.93;;;;;;;;;;5035739;28;20055;-72
2022/04/19 05:59:18;;;;;;;9.88;6.82;;;;;;;;;;5036053;28;20029;-73
2022/04/19 06:07:14;;;;;;;13.73;6.22;;;;;;;;;;5019989;28;20025;-73
2022/04/19 06:09:40;;;;;;;8.15;5.43;;;;;;;;;;5049596;28;20519;-73
2022/04/19 06:12:07;;;;;;;8.07;4.85;;;;;;;;;;5037670;28;20025;-73
2022/04/19 06:14:33;;;;;;;13.55;5.55;;;;;;;;;;5035597;28;20456;-73
2022/04/19 06:16:59;;;;;;;13.48;5.50;;;;;;;;;;5035847;28;20020;-73
2022/04/19 06:19:27;;;;;;;10.52;5.47;;;;;;;;;;5034661;28;20047;-73
2022/04/19 06:21:55;;;;;;;9.88;5.13;;;;;;;;;;5030437;28;20033;-73
2022/04/19 06:24:21;;;;;;;8.30;4.38;;;;;;;;;;5037478;28;20381;-73
2022/04/19 06:26:48;;;;;;;12.20;4.75;;;;;;;;;;5035149;28;20077;-73
2022/04/19 06:29:14;;;;;;;11.30;4.80;;;;;;;;;;5035368;28;20107;-73
2022/04/19 06:31:41;;;;;;;10.70;4.35;;;;;;;;;;5032650;28;20074;-74
2022/04/19 06:34:08;;;;;;;10.02;4.97;;;;;;;;;;5046233;28;20036;-73
2022/04/19 06:36:34;;;;;;;11.35;5.25;;;;;;;;;;5034158;28;20134;-73
2022/04/19 06:39:00;;;;;;;10.65;4.30;;;;;;;;;;5035823;28;20040;-74
2022/04/19 06:41:27;;;;;;;8.52;4.55;;;;;;;;;;5036257;28;20029;-74
2022/04/19 06:43:57;;;;;;;8.38;4.43;;;;;;;;;;5035400;28;20029;-74
2022/04/19 06:46:25;;;;;;;9.30;4.07;;;;;;;;;;5034426;28;20009;-74
2022/04/19 06:48:55;;;;;;;6.18;4.30;;;;;;;;;;5030953;28;20059;-74
2022/04/19 06:51:22;;;;;;;10.60;3.60;;;;;;;;;;5037021;28;20031;-74
2022/04/19 06:53:49;;;;;;;6.13;3.60;;;;;;;;;;5034241;28;20049;-74
2022/04/19 06:56:16;;;;;;;6.88;3.95;;;;;;;;;;5032809;28;20391;-74
2022/04/19 06:58:44;;;;;;;4.95;3.85;;;;;;;;;;5034291;28;20031;-74
2022/04/19 07:01:10;;;;;;;7.90;4.13;;;;;;;;;;5031804;28;20494;-74
2022/04/19 07:03:37;;;;;;;5.07;3.63;;;;;;;;;;5033565;28;20023;-74
2022/04/19 07:06:04;;;;;;;9.27;3.50;;;;;;;;;;5035596;28;20033;-74
2022/04/19 07:08:30;;;;;;;5.90;3.67;;;;;;;;;;5033937;28;20022;-74
2022/04/19 07:10:57;;;;;;;7.22;3.70;;;;;;;;;;5033453;28;20036;-75
2022/04/19 07:13:24;;;;;;;8.45;3.60;;;;;;;;;;5033072;28;20512;-75
2022/04/19 07:15:50;;;;;;;5.25;3.65;;;;;;;;;;5028010;28;20082;-75
2022/04/19 07:18:17;;;;;;;6.88;3.63;;;;;;;;;;5045482;28;20029;-75
2022/04/19 07:29:00;;;;;;;3.08;2.78;;;;;;;;;;5031804;28;20031;-76
2022/04/19 07:31:27;;;;;;;8.48;3.28;;;;;;;;;;5032315;28;20020;-76
2022/04/19 07:33:53;;;;;;;5.22;3.53;;;;;;;;;;5029330;28;20501;-76
2022/04/19 07:36:20;;;;;;;6.50;3.45;;;;;;;;;;5033301;28;20034;-76
2022/04/19 07:38:46;;;;;;;4.60;3.45;;;;;;;;;;5032937;28;20034;-76
2022/04/19 07:41:13;;;;;;;5.85;3.42;;;;;;;;;;5032763;28;20018;-76
2022/04/19 07:43:39;;;;;;;6.47;3.38;;;;;;;;;;5033184;28;20024;-76
2022/04/19 07:46:06;;;;;;;5.93;3.15;;;;;;;;;;5029426;28;20028;-76
2022/04/19 07:48:32;;;;;;;6.05;3.42;;;;;;;;;;5032949;28;20031;-76
2022/04/19 07:50:59;;;;;;;4.55;3.10;;;;;;;;;;5048571;28;20031;-76
2022/04/19 07:53:25;;;;;;;4.07;3.00;;;;;;;;;;5031642;28;20054;-76
2022/04/19 07:55:55;;;;;;;4.35;3.25;;;;;;;;;;5032785;28;20026;-76
2022/04/19 07:58:21;;;;;;;4.07;3.22;;;;;;;;;;5031182;28;20481;-77
2022/04/19 08:00:47;;;;;;;3.47;2.92;;;;;;;;;;5028794;28;20030;-77
2022/04/19 08:03:14;;;;;;;5.68;3.83;;;;;;;;;;5050163;28;20030;-77
2022/04/19 08:05:40;;;;;;;5.07;4.00;;;;;;;;;;5038536;28;20032;-76
2022/04/19 08:08:07;;;;;;;4.15;3.40;;;;;;;;;;5029405;28;20026;-77
2022/04/19 08:10:33;;;;;;;4.57;3.40;;;;;;;;;;5032251;28;20036;-76
2022/04/19 08:13:00;;;;;;;5.47;3.63;;;;;;;;;;5028157;28;20025;-77
2022/04/19 08:15:26;;;;;;;7.20;4.22;;;;;;;;;;5033888;28;20406;-77
2022/04/19 08:17:53;;;;;;;10.80;4.47;;;;;;;;;;5032252;28;20498;-76
2022/04/19 08:20:19;;;;;;;5.43;4.25;;;;;;;;;;5032618;28;20034;-76
2022/04/19 08:22:45;;;;;;;5.22;4.32;;;;;;;;;;5032500;28;20029;-77
2022/04/19 08:25:12;;;;;;;7.68;3.97;;;;;;;;;;5029797;28;20083;-77
2022/04/19 08:27:41;;;;;;;6.68;4.15;;;;;;;;;;5031277;28;20026;-77
2022/04/19 08:30:08;;;;;;;6.80;3.95;;;;;;;;;;5030708;28;20478;-77
2022/04/19 08:32:34;;;;;;;5.95;4.03;;;;;;;;;;5032311;28;20028;-78
2022/04/19 08:35:01;;;;;;;7.18;4.13;;;;;;;;;;5032291;28;20029;-77
2022/04/19 08:37:31;;;;;;;10.40;3.80;;;;;;;;;;5032872;28;20029;-77
2022/04/19 08:39:57;;;;;;;8.93;4.40;;;;;;;;;;5031805;28;20025;-78
2022/04/19 08:42:24;;;;;;;8.88;4.60;;;;;;;;;;5037936;28;20394;-77
2022/04/19 08:44:50;;;;;;;5.63;4.40;;;;;;;;;;5035509;28;20025;-76
2022/04/19 08:47:16;;;;;;;6.60;4.43;;;;;;;;;;5035735;28;20529;-75
2022/04/19 08:49:43;;;;;;;6.88;4.40;;;;;;;;;;5035274;28;20078;-76
2022/04/19 08:52:10;;;;;;;10.52;4.57;;;;;;;;;;5032617;28;20095;-77
2022/04/19 08:57:30;;;;;;;13.60;4.65;;;;;;;;;;5051184;28;20039;-76
2022/04/19 08:59:57;;;;;;;8.23;3.92;;;;;;;;;;5035805;28;20034;-76
2022/04/19 09:02:25;;;;;;;8.98;4.00;;;;;;;;;;5035480;28;20035;-76
2022/04/19 09:04:52;;;;;;;5.68;4.15;;;;;;;;;;5034282;28;20021;-76
2022/04/19 09:07:20;;;;;;;7.50;4.47;;;;;;;;;;5045543;28;20056;-76
2022/04/19 09:10:00;;;;;;;5.95;4.00;;;;;;;;;;5032489;28;20048;-76
2022/04/19 09:12:27;;;;;;;5.90;3.90;;;;;;;;;;5044655;28;20490;-76
2022/04/19 09:15:00;;;;;;;5.45;3.85;;;;;;;;;;5034611;28;20044;-76
2022/04/19 09:17:36;;;;;;;6.53;3.97;;;;;;;;;;5035667;28;20074;-76
2022/04/19 09:20:12;;;;;;;7.13;3.67;;;;;;;;;;5035300;28;20414;-76
2022/04/19 09:22:39;;;;;;;5.38;3.85;;;;;;;;;;5035381;28;20025;-77
2022/04/19 09:25:15;;;;;;;7.88;4.20;;;;;;;;;;5030382;28;20043;-76
2022/04/19 09:27:42;;;;;;;6.07;4.25;;;;;;;;;;5033169;28;20022;-76
2022/04/19 09:30:21;;;;;;;5.85;3.80;;;;;;;;;;5036701;28;20513;-76
2022/04/19 09:33:06;;;;;;;4.70;3.47;;;;;;;;;;5033754;28;20021;-76
2022/04/19 09:35:34;;;;;;;5.15;3.78;;;;;;;;;;5035206;28;20043;-76
2022/04/19 09:38:00;;;;;;;5.45;3.85;;;;;;;;;;5034755;28;20021;-76
2022/04/19 09:40:28;;;;;;;6.05;3.58;;;;;;;;;;5034475;28;20024;-76
2022/04/19 09:42:55;;;;;;;4.30;3.30;;;;;;;;;;5030171;28;20036;-76
2022/04/19 09:45:23;;;;;;;5.75;3.70;;;;;;;;;;5035776;28;20502;-76
2022/04/19 09:47:53;;;;;;;4.13;3.72;;;;;;;;;;5034485;28;20022;-76
2022/04/19 09:50:21;;;;;;;9.23;3.50;;;;;;;;;;5034582;28;20040;-76
2022/04/19 09:52:50;;;;;;;6.80;3.63;;;;;;;;;;5033053;28;20044;-76
2022/04/19 09:55:17;;;;;;;4.87;3.33;;;;;;;;;;5032344;28;20029;-76
2022/04/19 09:57:47;;;;;;;4.43;3.40;;;;;;;;;;5032252;28;20018;-76
2022/04/19 10:00:13;;;;;;;;;;;;;;;;;;5035671;28;20021;-76
2022/04/19 10:08:11;;;;;;;4.35;3.40;;;;;;;;;;5033981;28;20033;-76
2022/04/19 10:10:41;;;;;;;3.72;2.83;;;;;;;;;;5033579;28;20105;-76
2022/04/19 10:13:08;;;;;;;5.03;3.50;;;;;;;;;;5027904;28;20549;-77
2022/04/19 10:15:35;;;;;;;3.10;2.80;;;;;;;;;;5062877;28;20037;-77
2022/04/19 10:18:05;;;;;;;4.00;3.17;;;;;;;;;;5030775;28;20021;-77
2022/04/19 10:20:33;;;;;;;10.45;3.60;;;;;;;;;;5034650;28;20331;-77
2022/04/19 10:23:03;;;;;;;3.45;2.95;;;;;;;;;;5033230;28;20503;-77
2022/04/19 10:25:48;;;;;;;4.80;2.60;;;;;;;;;;5045570;28;20024;-77
2022/04/19 10:28:15;;;;;;;4.10;2.75;;;;;;;;;;5018004;28;20516;-77
2022/04/19 10:30:51;;;;;;;3.67;2.42;;;;;;;;;;5032184;28;20474;-77
2022/04/19 10:33:39;;;;;;;4.78;2.50;;;;;;;;;;5035062;28;20032;-78
2022/04/19 10:36:24;;;;;;;2.97;2.40;;;;;;;;;;5034109;28;20505;-78
2022/04/19 10:39:09;;;;;;;5.43;1.98;;;;;;;;;;5034506;28;20048;-77
2022/04/19 10:42:05;;;;;;;4.50;1.98;;;;;;;;;;5033586;28;20576;-77
2022/04/19 10:44:36;;;;;;;3.50;1.98;;;;;;;;;;5024365;28;20532;-76
2022/04/19 10:47:12;;;;;;;6.00;2.05;;;;;;;;;;5033805;28;20029;-76
2022/04/19 10:49:52;;;;;;;2.90;1.70;;;;;;;;;;5028119;28;20028;-76
2022/04/19 10:52:39;;;;;;;2.50;1.38;;;;;;;;;;5027652;28;20536;-75
2022/04/19 10:55:19;;;;;;;6.75;1.73;;;;;;;;;;5014430;28;20049;-76
2022/04/19 11:00:37;;;;;;;2.75;1.45;;;;;;;;;;5029470;28;20009;-76
2022/04/19 11:03:05;;;;;;;3.22;1.30;;;;;;;;;;5028241;28;20029;-75
2022/04/19 11:05:41;;;;;;;8.70;1.30;;;;;;;;;;5029357;28;20022;-76
2022/04/19 11:08:19;;;;;;;3.63;1.30;;;;;;;;;;5033709;28;20032;-75
2022/04/19 11:10:46;;;;;;;1.58;1.38;;;;;;;;;;5033156;28;20393;-76
2022/04/19 11:13:12;;;;;;;4.15;1.50;;;;;;;;;;5030556;28;20056;-76
2022/04/19 11:15:41;;;;;;;1.65;1.33;;;;;;;;;;5032208;28;20498;-76
2022/04/19 11:18:24;;;;;;;4.25;1.40;;;;;;;;;;5034544;28;20027;-77
2022/04/19 11:20:54;;;;;;;1.98;1.50;;;;;;;;;;5032549;28;20446;-77
2022/04/19 11:23:20;;;;;;;;;;;;;;;;;;5033461;28;20024;-76
2022/04/19 11:25:48;;;;;;;4.65;1.35;;;;;;;;;;5030809;28;19909;-77
2022/04/19 11:28:16;;;;;;;3.63;1.48;;;;;;;;;;5061668;28;20451;-77
2022/04/19 11:30:44;;;;;;;5.22;1.50;;;;;;;;;;5030029;28;20030;-76
2022/04/19 11:33:10;;;;;;;1.42;1.25;;;;;;;;;;5032649;28;20025;-77
2022/04/19 11:35:36;;;;;;;5.60;1.52;;;;;;;;;;5038619;28;20525;-77
2022/04/19 11:38:08;;;;;;;3.50;1.40;;;;;;;;;;5039661;28;20014;-77
2022/04/19 11:49:04;;;;;;;2.92;1.40;;;;;;;;;;5029066;28;22502;-77
2022/04/19 11:51:35;;;;;;;2.67;1.55;;;;;;;;;;5032643;28;20020;-77
2022/04/19 11:54:01;;;;;;;2.05;1.23;;;;;;;;;;5063355;28;20041;-77
2022/04/19 11:56:28;;;;;;;4.05;1.00;;;;;;;;;;5030351;28;20026;-77
2022/04/19 11:58:57;;;;;;;7.93;1.40;;;;;;;;;;5032419;28;20405;-77
2022/04/19 12:01:24;;;;;;;1.83;1.35;;;;;;;;;;5028209;28;20029;-77
2022/04/19 12:03:50;;;;;;;1.85;1.65;;;;;;;;;;5027889;28;20042;-76
2022/04/19 12:06:19;;;;;;;2.33;1.40;;;;;;;;;;5031465;28;20026;-77
2022/04/19 12:08:46;;;;;;;2.15;1.80;;;;;;;;;;5032565;28;20034;-76
2022/04/19 12:11:17;;;;;;;3.65;1.50;;;;;;;;;;5035682;28;20044;-76
2022/04/19 12:13:44;;;;;;;5.00;1.80;;;;;;;;;;5036589;28;20029;-77
2022/04/19 12:16:29;;;;;;;3.75;2.10;;;;;;;;;;5032398;28;20021;-77
2022/04/19 12:18:58;;;;;;;2.20;1.67;;;;;;;;;;5029580;28;20025;-77
2022/04/19 12:21:43;;;;;;;7.50;2.80;;;;;;;;;;5037808;28;20035;-77
2022/04/19 12:24:20;;;;;;;3.97;1.60;;;;;;;;;;5038132;28;20025;-76
2022/04/19 12:26:50;;;;;;;1.88;1.60;;;;;;;;;;5035865;28;20041;-77
2022/04/19 12:29:17;;;;;;;2.28;1.73;;;;;;;;;;5034178;28;20032;-76
2022/04/19 12:31:44;;;;;;;1.55;1.40;;;;;;;;;;5034507;28;20532;-77
2022/04/19 12:34:12;;;;;;;1.85;1.70;;;;;;;;;;5033027;28;20041;-75
2022/04/19 12:36:48;;;;;;;2.92;1.80;;;;;;;;;;5034940;28;20033;-77
2022/04/19 12:39:15;;;;;;;1.85;1.70;;;;;;;;;;5036079;28;20025;-77
2022/04/19 12:41:46;;;;;;;1.90;1.70;;;;;;;;;;5034442;28;20017;-77
2022/04/19 12:44:13;;;;;;;4.15;1.67;;;;;;;;;;5035375;28;20033;-77
2022/04/19 12:46:46;;;;;;;1.75;1.50;;;;;;;;;;5035297;28;20025;-75
2022/04/19 12:49:23;;;;;;;2.97;1.67;;;;;;;;;;5032394;28;20055;-76
2022/04/19 17:45:39;;;;;;;12.70;7.65;;;;;;;;;;5124109;27;20375;-77
2022/04/19 17:48:05;;;;;;;9.20;7.75;;;;;;;;;;5106063;28;20032;-72
2022/04/19 17:58:47;;;;;;;12.88;9.00;;;;;;;;;;5089765;28;20042;-72
2022/04/19 18:01:13;;;;;;;15.13;9.18;;;;;;;;;;5090087;28;20022;-72
2022/04/19 18:03:39;;;;;;;12.80;9.80;;;;;;;;;;5088973;28;20515;-70
2022/04/19 18:06:08;;;;;;;15.23;10.50;;;;;;;;;;5089817;28;20035;-69
2022/04/19 18:08:35;;;;;;;13.52;10.10;;;;;;;;;;5089656;28;20030;-70
2022/04/19 18:11:01;;;;;;;15.52;10.77;;;;;;;;;;5089284;28;20023;-70
2022/04/19 18:13:27;;;;;;;12.52;10.45;;;;;;;;;;5089552;28;20032;-70
2022/04/19 18:15:53;;;;;;;14.43;11.07;;;;;;;;;;5089626;28;20050;-70
2022/04/19 18:18:20;;;;;;;13.80;10.60;;;;;;;;;;5088653;28;20226;-70
2022/04/19 18:20:47;;;;;;;17.33;11.07;;;;;;;;;;5089321;28;20043;-70
2022/04/19 18:25:58;;;;;;;21.42;11.10;;;;;;;;;;5089246;28;20028;-70
2022/04/19 18:28:25;;;;;;;13.75;9.55;;;;;;;;;;5089784;28;20020;-70
2022/04/19 18:30:52;;;;;;;14.13;10.60;;;;;;;;;;5089372;28;20038;-70
2022/04/19 18:33:18;;;;;;;15.23;10.05;;;;;;;;;;5087114;28;20403;-70
2022/04/19 18:35:44;;;;;;;14.57;9.95;;;;;;;;;;5089463;28;20024;-70
2022/04/19 18:38:11;;;;;;;13.48;9.15;;;;;;;;;;5088851;28;20438;-70
2022/04/19 18:40:38;;;;;;;12.27;9.35;;;;;;;;;;5088834;28;20400;-70
2022/04/19 18:43:09;;;;;;;17.05;9.45;;;;;;;;;;5089084;28;20020;-70
2022/04/19 18:45:36;;;;;;;16.33;9.77;;;;;;;;;;5087979;28;20042;-69
2022/04/19 18:48:02;;;;;;;11.35;9.20;;;;;;;;;;5089047;28;20028;-70
2022/04/19 18:50:29;;;;;;;17.13;12.15;;;;;;;;;;5088987;28;20020;-70
2022/04/19 18:52:55;;;;;;;20.23;14.07;;;;;;;;;;5088540;28;20039;-70
2022/04/19 18:55:21;;;;;;;17.50;11.77;;;;;;;;;;5084499;28;20029;-70
2022/04/19 18:57:48;;;;;;;13.77;10.38;;;;;;;;;;5075551;28;20476;-70
2022/04/19 19:00:18;;;;;;;17.90;10.55;;;;;;;;;;5074389;28;20387;-70
2022/04/19 19:02:51;;;;;;;13.18;10.40;;;;;;;;;;5075326;28;20020;-70
2022/04/19 19:05:18;;;;;;;12.73;10.00;;;;;;;;;;5073824;28;20029;-70
2022/04/19 19:07:45;;;;;;;19.35;10.68;;;;;;;;;;5074973;28;20034;-70
2022/04/19 19:10:12;;;;;;;14.88;11.10;;;;;;;;;;5074961;28;20415;-70
2022/04/19 19:12:38;;;;;;;17.35;11.93;;;;;;;;;;5074473;28;20027;-70
2022/04/19 19:15:05;;;;;;;19.33;14.52;;;;;;;;;;5075251;28;20032;-70
2022/04/19 19:17:32;;;;;;;17.65;13.15;;;;;;;;;;5074957;28;20025;-70
2022/04/19 19:19:58;;;;;;;20.23;12.73;;;;;;;;;;5074802;28;20040;-70
2022/04/19 19:22:24;;;;;;;14.35;11.93;;;;;;;;;;5074651;28;20021;-70
2022/04/19 19:24:51;;;;;;;19.38;13.52;;;;;;;;;;5073604;28;20052;-70
2022/04/19 19:27:17;;;;;;;15.77;12.18;;;;;;;;;;5073930;28;20056;-70
2022/04/19 19:29:44;;;;;;;18.95;13.60;;;;;;;;;;5074493;28;20027;-70
2022/04/19 19:32:10;;;;;;;21.15;13.43;;;;;;;;;;5074902;28;20031;-70
2022/04/19 19:34:36;;;;;;;17.27;13.20;;;;;;;;;;5074627;28;20024;-70
2022/04/19 19:37:03;;;;;;;19.85;13.35;;;;;;;;;;5074405;28;20024;-69
2022/04/19 19:39:30;;;;;;;18.48;13.57;;;;;;;;;;5074015;28;20027;-70
2022/04/19 19:41:57;;;;;;;19.20;12.77;;;;;;;;;;5074193;28;20033;-70
2022/04/19 19:44:24;;;;;;;17.30;12.35;;;;;;;;;;5074204;28;20379;-69
2022/04/19 19:46:51;;;;;;;19.35;12.35;;;;;;;;;;5074236;28;20029;-70
2022/04/19 19:49:17;;;;;;;16.55;12.25;;;;;;;;;;5074245;28;20020;-69
2022/04/19 19:51:44;;;;;;;15.63;12.00;;;;;;;;;;5073659;28;20028;-70
2022/04/19 19:54:10;;;;;;;17.90;13.10;;;;;;;;;;5073465;28;20497;-70
2022/04/19 19:56:37;;;;;;;16.70;12.23;;;;;;;;;;5074185;28;20028;-70
2022/04/19 19:59:04;;;;;;;16.40;12.75;;;;;;;;;;5074364;28;20035;-70
2022/04/19 20:01:32;;;;;;;15.10;11.90;;;;;;;;;;5074036;28;20025;-70
2022/04/19 20:04:01;;;;;;;14.73;11.88;;;;;;;;;;5074093;28;20017;-70
2022/04/19 20:06:28;;;;;;;15.32;11.88;;;;;;;;;;5071590;28;20030;-70
2022/04/19 20:08:55;;;;;;;15.63;12.38;;;;;;;;;;5073275;28;20034;-70
2022/04/19 20:11:22;;;;;;;13.98;12.02;;;;;;;;;;5073742;28;20023;-70
2022/04/19 20:13:48;;;;;;;14.32;11.55;;;;;;;;;;5056016;28;20020;-70
2022/04/19 20:16:15;;;;;;;13.23;10.75;;;;;;;;;;5072576;28;20513;-70
2022/04/19 20:18:42;;;;;;;19.10;12.30;;;;;;;;;;5072971;28;20021;-70
2022/04/19 20:21:09;;;;;;;14.77;10.98;;;;;;;;;;5072980;28;20033;-70
2022/04/19 20:23:36;;;;;;;14.82;11.82;;;;;;;;;;5073458;28;20023;-69
2022/04/19 20:26:03;;;;;;;14.57;10.82;;;;;;;;;;5073573;28;20023;-70
2022/04/19 20:28:30;;;;;;;15.23;11.20;;;;;;;;;;5073625;28;20025;-70